Accueil
METAR-TAF:

METAR-TAF

Aéroports :

Akhiok, Alaska, États-Unis

latitude: 56-56-19N, longitude: 154-10-57W, altitude: 13 m

Observation

Le bulletin a été fait il y a 6 minutes, à 08:56 UTC
Vent 6 kt de nord/nord-est
Température 2°C
Humidité 100%
Pression 1002 hPa
Quelques nuages à une hauteur de 400 ft
Nuages fragmentés à une hauteur de 3200 ft
Ciel couvert à une hauteur de 4800 ft

METAR: PAKH 060856Z AUTO 03006KT FEW004 BKN032 OVC048 02/02 A2960 RMK AO2 SLP024 T00220017 400391028 50000 PWINO FZRANO $

Heure: 00:02 (09:02 UTC)


TAF: absent

Observations et prévisions météorologiques de plus de 4000 aéroports (messages METAR et TAF).

Les stations disponibles sont représentées par des disques jaunes et rouges sur la carte.

Passer la souris dessus pour voir le nom de la station.

Cliquer dessus pour voir les observations et prévisions météorologiques.

Pour changer de carte: cliquez sur les boutons verts avec une croix noire pour zoomer, sur le bouton vert avec un tiret pour effectuer un zoom arrière, ou sur les flèches vertes pour les cartes adjacentes.


METAR-TAF: